sensor_id;sensor_type;location;lat;lon;timestamp;pressure;altitude;pressure_sealevel;temperature;humidity
16120;BME280;12670;53.502;10.252;2023-04-09T00:01:15;102426.91;;;8.79;100.00
16120;BME280;12670;53.502;10.252;2023-04-09T00:04:18;102419.88;;;8.75;100.00
16120;BME280;12670;53.502;10.252;2023-04-09T00:07:22;102426.91;;;8.79;100.00
16120;BME280;12670;53.502;10.252;2023-04-09T00:10:25;102424.28;;;8.76;100.00
16120;BME280;12670;53.502;10.252;2023-04-09T00:13:28;102414.56;;;8.77;100.00
16120;BME280;12670;53.502;10.252;2023-04-09T00:16:34;102427.81;;;8.72;100.00
16120;BME280;12670;53.502;10.252;2023-04-09T00:19:37;102422.53;;;8.75;100.00
16120;BME280;12670;53.502;10.252;2023-04-09T00:22:40;102416.31;;;8.78;100.00
16120;BME280;12670;53.502;10.252;2023-04-09T00:25:42;102418.13;;;8.74;100.00
16120;BME280;12670;53.502;10.252;2023-04-09T00:28:45;102408.44;;;8.70;100.00
16120;BME280;12670;53.502;10.252;2023-04-09T00:31:49;102413.69;;;8.73;100.00
16120;BME280;12670;53.502;10.252;2023-04-09T00:34:52;102417.19;;;8.78;100.00
16120;BME280;12670;53.502;10.252;2023-04-09T00:37:54;102414.59;;;8.72;100.00
16120;BME280;12670;53.502;10.252;2023-04-09T00:40:57;102411.06;;;8.72;100.00
16120;BME280;12670;53.502;10.252;2023-04-09T00:43:59;102418.13;;;8.74;100.00
16120;BME280;12670;53.502;10.252;2023-04-09T00:47:04;102418.06;;;8.79;100.00
16120;BME280;12670;53.502;10.252;2023-04-09T00:50:07;102412.81;;;8.73;100.00
16120;BME280;12670;53.502;10.252;2023-04-09T00:53:11;102412.06;;;8.59;100.00
16120;BME280;12670;53.502;10.252;2023-04-09T00:56:15;102413.75;;;8.70;100.00
16120;BME280;12670;53.502;10.252;2023-04-09T00:59:18;102408.44;;;8.70;100.00
16120;BME280;12670;53.502;10.252;2023-04-09T01:02:22;102412.94;;;8.58;100.00
16120;BME280;12670;53.502;10.252;2023-04-09T01:05:32;102404.06;;;8.68;100.00
16120;BME280;12670;53.502;10.252;2023-04-09T01:08:42;102410.25;;;8.65;100.00
16120;BME280;12670;53.502;10.252;2023-04-09T01:11:54;102411.09;;;8.70;100.00
16120;BME280;12670;53.502;10.252;2023-04-09T01:15:04;102423.50;;;8.64;100.00
16120;BME280;12670;53.502;10.252;2023-04-09T01:18:10;102423.50;;;8.64;100.00
16120;BME280;12670;53.502;10.252;2023-04-09T01:21:18;102419.03;;;8.70;100.00
16120;BME280;12670;53.502;10.252;2023-04-09T01:24:34;102413.84;;;8.55;100.00
16120;BME280;12670;53.502;10.252;2023-04-09T01:27:48;102412.03;;;8.60;100.00
16120;BME280;12670;53.502;10.252;2023-04-09T01:31:05;102412.00;;;8.65;100.00
16120;BME280;12670;53.502;10.252;2023-04-09T01:34:09;102407.63;;;8.64;100.00
16120;BME280;12670;53.502;10.252;2023-04-09T01:37:14;102408.50;;;8.61;100.00
16120;BME280;12670;53.502;10.252;2023-04-09T01:40:17;102409.34;;;8.66;100.00
16120;BME280;12670;53.502;10.252;2023-04-09T01:43:20;102403.16;;;8.67;100.00
16120;BME280;12670;53.502;10.252;2023-04-09T01:46:24;102408.47;;;8.66;100.00
16120;BME280;12670;53.502;10.252;2023-04-09T01:49:28;102409.34;;;8.68;100.00
16120;BME280;12670;53.502;10.252;2023-04-09T01:52:31;102397.91;;;8.61;100.00
16120;BME280;12670;53.502;10.252;2023-04-09T01:55:33;102398.78;;;8.65;100.00
16120;BME280;12670;53.502;10.252;2023-04-09T01:58:36;102397.03;;;8.64;100.00
16120;BME280;12670;53.502;10.252;2023-04-09T02:01:44;102405.88;;;8.63;100.00
16120;BME280;12670;53.502;10.252;2023-04-09T02:04:48;102397.91;;;8.64;100.00
16120;BME280;12670;53.502;10.252;2023-04-09T02:07:55;102392.59;;;8.66;100.00
16120;BME280;12670;53.502;10.252;2023-04-09T02:10:58;102392.63;;;8.61;100.00
16120;BME280;12670;53.502;10.252;2023-04-09T02:14:03;102383.81;;;8.62;100.00
16120;BME280;12670;53.502;10.252;2023-04-09T02:17:10;102395.31;;;8.58;100.00
16120;BME280;12670;53.502;10.252;2023-04-09T02:20:15;102390.88;;;8.60;100.00
16120;BME280;12670;53.502;10.252;2023-04-09T02:23:18;102389.13;;;8.59;100.00
16120;BME280;12670;53.502;10.252;2023-04-09T02:26:22;102388.22;;;8.63;100.00
16120;BME280;12670;53.502;10.252;2023-04-09T02:29:24;102387.28;;;8.67;100.00
16120;BME280;12670;53.502;10.252;2023-04-09T02:32:28;102391.72;;;8.65;100.00
16120;BME280;12670;53.502;10.252;2023-04-09T02:35:31;102383.81;;;8.62;100.00
16120;BME280;12670;53.502;10.252;2023-04-09T02:38:34;102383.88;;;8.56;100.00
16120;BME280;12670;53.502;10.252;2023-04-09T02:41:36;102379.41;;;8.60;100.00
16120;BME280;12670;53.502;10.252;2023-04-09T02:44:39;102375.03;;;8.57;100.00
16120;BME280;12670;53.502;10.252;2023-04-09T02:47:43;102382.13;;;8.52;100.00
16120;BME280;12670;53.502;10.252;2023-04-09T02:50:46;102372.34;;;8.60;100.00
16120;BME280;12670;53.502;10.252;2023-04-09T02:53:48;102375.03;;;8.57;100.00
16120;BME280;12670;53.502;10.252;2023-04-09T02:56:51;102370.59;;;8.61;100.00
16120;BME280;12670;53.502;10.252;2023-04-09T02:59:54;102363.53;;;8.63;100.00
16120;BME280;12670;53.502;10.252;2023-04-09T03:02:58;102361.75;;;8.63;100.00
16120;BME280;12670;53.502;10.252;2023-04-09T03:06:01;102365.25;;;8.65;100.00
16120;BME280;12670;53.502;10.252;2023-04-09T03:09:04;102362.66;;;8.62;100.00
16120;BME280;12670;53.502;10.252;2023-04-09T03:12:06;102360.88;;;8.61;100.00
16120;BME280;12670;53.502;10.252;2023-04-09T03:15:09;102354.72;;;8.62;100.00
16120;BME280;12670;53.502;10.252;2023-04-09T03:18:13;102354.69;;;8.64;100.00
16120;BME280;12670;53.502;10.252;2023-04-09T03:21:16;102352.94;;;8.64;100.00
16120;BME280;12670;53.502;10.252;2023-04-09T03:24:19;102359.09;;;8.65;100.00
16120;BME280;12670;53.502;10.252;2023-04-09T03:27:21;102357.34;;;8.61;100.00
16120;BME280;12670;53.502;10.252;2023-04-09T03:30:24;102358.25;;;8.60;100.00
16120;BME280;12670;53.502;10.252;2023-04-09T03:33:28;102354.72;;;8.62;100.00
16120;BME280;12670;53.502;10.252;2023-04-09T03:36:31;102352.06;;;8.62;100.00
16120;BME280;12670;53.502;10.252;2023-04-09T03:39:34;102357.34;;;8.61;100.00
16120;BME280;12670;53.502;10.252;2023-04-09T03:42:36;102353.81;;;8.63;100.00
16120;BME280;12670;53.502;10.252;2023-04-09T03:45:39;102353.00;;;8.57;100.00
16120;BME280;12670;53.502;10.252;2023-04-09T03:48:43;102360.09;;;8.51;100.00
16120;BME280;12670;53.502;10.252;2023-04-09T03:51:46;102355.66;;;8.52;100.00
16120;BME280;12670;53.502;10.252;2023-04-09T03:54:48;102362.66;;;8.59;100.00
16120;BME280;12670;53.502;10.252;2023-04-09T03:57:51;102355.59;;;8.61;100.00
16120;BME280;12670;53.502;10.252;2023-04-09T04:00:54;102357.34;;;8.64;100.00
16120;BME280;12670;53.502;10.252;2023-04-09T04:03:57;102360.00;;;8.61;100.00
16120;BME280;12670;53.502;10.252;2023-04-09T04:07:02;102357.38;;;8.62;100.00
16120;BME280;12670;53.502;10.252;2023-04-09T04:10:05;102355.63;;;8.55;100.00
16120;BME280;12670;53.502;10.252;2023-04-09T04:13:08;102363.53;;;8.63;100.00
16120;BME280;12670;53.502;10.252;2023-04-09T04:16:11;102360.88;;;8.61;100.00
16120;BME280;12670;53.502;10.252;2023-04-09T04:19:15;102367.06;;;8.63;100.00
16120;BME280;12670;53.502;10.252;2023-04-09T04:22:17;102369.66;;;8.66;100.00
16120;BME280;12670;53.502;10.252;2023-04-09T04:25:20;102375.88;;;8.59;100.00
16120;BME280;12670;53.502;10.252;2023-04-09T04:28:23;102368.84;;;8.60;100.00
16120;BME280;12670;53.502;10.252;2023-04-09T04:31:25;102370.66;;;8.56;100.00
16120;BME280;12670;53.502;10.252;2023-04-09T04:34:29;102369.72;;;8.60;100.00
16120;BME280;12670;53.502;10.252;2023-04-09T04:37:32;102375.03;;;8.57;100.00
16120;BME280;12670;53.502;10.252;2023-04-09T04:40:35;102375.00;;;8.60;100.00
16120;BME280;12670;53.502;10.252;2023-04-09T04:43:38;102373.28;;;8.56;100.00
16120;BME280;12670;53.502;10.252;2023-04-09T04:46:41;102368.84;;;8.60;100.00
16120;BME280;12670;53.502;10.252;2023-04-09T04:49:45;102364.44;;;8.57;100.00
16120;BME280;12670;53.502;10.252;2023-04-09T04:52:48;102363.56;;;8.55;100.00
16120;BME280;12670;53.502;10.252;2023-04-09T04:55:50;102364.47;;;8.54;100.00
16120;BME280;12670;53.502;10.252;2023-04-09T04:58:53;102364.41;;;8.60;100.00
16120;BME280;12670;53.502;10.252;2023-04-09T05:01:56;102369.72;;;8.60;100.00
16120;BME280;12670;53.502;10.252;2023-04-09T05:05:00;102374.13;;;8.60;100.00
16120;BME280;12670;53.502;10.252;2023-04-09T05:08:03;102371.44;;;8.64;100.00
16120;BME280;12670;53.502;10.252;2023-04-09T05:11:06;102366.16;;;8.61;100.00
16120;BME280;12670;53.502;10.252;2023-04-09T05:14:08;102369.69;;;8.63;100.00
16120;BME280;12670;53.502;10.252;2023-04-09T05:17:11;102366.19;;;8.60;100.00
16120;BME280;12670;53.502;10.252;2023-04-09T05:20:15;102377.63;;;8.63;100.00
16120;BME280;12670;53.502;10.252;2023-04-09T05:23:18;102375.00;;;8.63;100.00
16120;BME280;12670;53.502;10.252;2023-04-09T05:26:20;102379.38;;;8.64;100.00
16120;BME280;12670;53.502;10.252;2023-04-09T05:29:23;102375.03;;;8.54;100.00
16120;BME280;12670;53.502;10.252;2023-04-09T05:32:26;102380.25;;;8.66;100.00
16120;BME280;12670;53.502;10.252;2023-04-09T05:35:30;102381.03;;;8.80;100.00
16120;BME280;12670;53.502;10.252;2023-04-09T05:38:33;102385.47;;;8.75;100.00
16120;BME280;12670;53.502;10.252;2023-04-09T05:41:35;102390.81;;;8.66;100.00
16120;BME280;12670;53.502;10.252;2023-04-09T05:44:39;102386.38;;;8.71;100.00
16120;BME280;12670;53.502;10.252;2023-04-09T05:47:41;102395.28;;;8.63;100.00
16120;BME280;12670;53.502;10.252;2023-04-09T05:50:49;102395.19;;;8.72;100.00
16120;BME280;12670;53.502;10.252;2023-04-09T05:53:56;102391.69;;;8.71;100.00
16120;BME280;12670;53.502;10.252;2023-04-09T05:56:59;102390.84;;;8.68;100.00
16120;BME280;12670;53.502;10.252;2023-04-09T06:00:02;102392.56;;;8.70;100.00
16120;BME280;12670;53.502;10.252;2023-04-09T06:03:05;102388.13;;;8.75;100.00
16120;BME280;12670;53.502;10.252;2023-04-09T06:06:09;102399.56;;;8.80;100.00
16120;BME280;12670;53.502;10.252;2023-04-09T06:09:12;102392.50;;;8.79;100.00
16120;BME280;12670;53.502;10.252;2023-04-09T06:12:14;102397.72;;;8.89;100.00
16120;BME280;12670;53.502;10.252;2023-04-09T06:15:18;102396.00;;;8.81;100.00
16120;BME280;12670;53.502;10.252;2023-04-09T06:18:21;102399.56;;;8.77;100.00
16120;BME280;12670;53.502;10.252;2023-04-09T06:21:25;102400.41;;;8.86;100.00
16120;BME280;12670;53.502;10.252;2023-04-09T06:24:27;102403.03;;;8.86;100.00
16120;BME280;12670;53.502;10.252;2023-04-09T06:27:32;102401.25;;;8.88;100.00
16120;BME280;12670;53.502;10.252;2023-04-09T06:30:34;102403.00;;;8.92;100.00
16120;BME280;12670;53.502;10.252;2023-04-09T06:33:38;102402.91;;;9.01;100.00
16120;BME280;12670;53.502;10.252;2023-04-09T06:36:42;102406.44;;;9.03;100.00
16120;BME280;12670;53.502;10.252;2023-04-09T06:39:44;102411.72;;;9.04;100.00
16120;BME280;12670;53.502;10.252;2023-04-09T06:43:01;102412.56;;;9.06;100.00
16120;BME280;12670;53.502;10.252;2023-04-09T06:46:04;102408.13;;;9.10;100.00
16120;BME280;12670;53.502;10.252;2023-04-09T06:49:06;102402.78;;;9.15;100.00
16120;BME280;12670;53.502;10.252;2023-04-09T06:52:10;102400.97;;;9.18;100.00
16120;BME280;12670;53.502;10.252;2023-04-09T06:55:13;102408.91;;;9.21;100.00
16120;BME280;12670;53.502;10.252;2023-04-09T06:58:16;102401.72;;;9.31;100.00
16120;BME280;12670;53.502;10.252;2023-04-09T07:01:18;102403.50;;;9.33;100.00
16120;BME280;12670;53.502;10.252;2023-04-09T07:04:21;102406.09;;;9.37;100.00
16120;BME280;12670;53.502;10.252;2023-04-09T07:07:25;102412.25;;;9.40;100.00
16120;BME280;12670;53.502;10.252;2023-04-09T07:10:28;102417.91;;;9.03;100.00
16120;BME280;12670;53.502;10.252;2023-04-09T07:13:31;102416.69;;;9.37;100.00
16120;BME280;12670;53.502;10.252;2023-04-09T07:16:34;102412.25;;;9.37;100.00
16120;BME280;12670;53.502;10.252;2023-04-09T07:19:36;102414.91;;;9.39;100.00
16120;BME280;12670;53.502;10.252;2023-04-09T07:22:40;102416.59;;;9.46;100.00
16120;BME280;12670;53.502;10.252;2023-04-09T07:25:43;102414.75;;;9.54;100.00
16120;BME280;12670;53.502;10.252;2023-04-09T07:28:45;102409.50;;;9.51;100.00
16120;BME280;12670;53.502;10.252;2023-04-09T07:31:48;102414.75;;;9.54;100.00
16120;BME280;12670;53.502;10.252;2023-04-09T07:34:51;102412.19;;;9.43;100.00
16120;BME280;12670;53.502;10.252;2023-04-09T07:37:56;102419.91;;;9.66;100.00
16120;BME280;12670;53.502;10.252;2023-04-09T07:40:59;102421.03;;;9.45;100.00
16120;BME280;12670;53.502;10.252;2023-04-09T07:44:01;102422.56;;;9.66;100.00
16120;BME280;12670;53.502;10.252;2023-04-09T07:47:05;102425.13;;;9.72;100.00
16120;BME280;12670;53.502;10.252;2023-04-09T07:50:09;102417.94;;;9.83;100.00
16120;BME280;12670;53.502;10.252;2023-04-09T07:53:13;102422.25;;;9.94;100.00
16120;BME280;12670;53.502;10.252;2023-04-09T07:56:15;102418.75;;;9.92;100.00
16120;BME280;12670;53.502;10.252;2023-04-09T07:59:18;102423.25;;;9.82;100.00
16120;BME280;12670;53.502;10.252;2023-04-09T08:02:21;102417.94;;;9.83;100.00
16120;BME280;12670;53.502;10.252;2023-04-09T08:05:24;102412.53;;;9.93;100.00
16120;BME280;12670;53.502;10.252;2023-04-09T08:08:28;102416.94;;;9.94;100.00
16120;BME280;12670;53.502;10.252;2023-04-09T08:11:31;102414.31;;;9.91;100.00
16120;BME280;12670;53.502;10.252;2023-04-09T08:14:34;102423.91;;;10.01;100.00
16120;BME280;12670;53.502;10.252;2023-04-09T08:17:37;102419.50;;;10.03;100.00
16120;BME280;12670;53.502;10.252;2023-04-09T08:20:39;102419.50;;;10.00;100.00
16120;BME280;12670;53.502;10.252;2023-04-09T08:23:47;102412.47;;;9.96;100.00
16120;BME280;12670;53.502;10.252;2023-04-09T08:26:49;102422.88;;;10.12;100.00
16120;BME280;12670;53.502;10.252;2023-04-09T08:29:52;102422.06;;;10.06;100.00
16120;BME280;12670;53.502;10.252;2023-04-09T08:32:54;102419.41;;;10.09;100.00
16120;BME280;12670;53.502;10.252;2023-04-09T08:35:57;102408.63;;;10.21;100.00
16120;BME280;12670;53.502;10.252;2023-04-09T08:39:05;102419.00;;;10.39;100.00
16120;BME280;12670;53.502;10.252;2023-04-09T08:42:08;102413.59;;;10.47;100.00
16120;BME280;12670;53.502;10.252;2023-04-09T08:45:12;102410.03;;;10.50;100.00
16120;BME280;12670;53.502;10.252;2023-04-09T08:48:15;102413.56;;;10.49;100.00
16120;BME280;12670;53.502;10.252;2023-04-09T08:51:20;102413.72;;;10.36;100.00
16120;BME280;12670;53.502;10.252;2023-04-09T08:54:25;102418.38;;;10.21;100.00
16120;BME280;12670;53.502;10.252;2023-04-09T08:57:27;102417.13;;;10.48;100.00
16120;BME280;12670;53.502;10.252;2023-04-09T09:00:30;102412.50;;;10.60;100.00
16120;BME280;12670;53.502;10.252;2023-04-09T09:03:51;102419.59;;;10.61;100.00
16120;BME280;12670;53.502;10.252;2023-04-09T09:07:05;102419.13;;;10.30;100.00
16120;BME280;12670;53.502;10.252;2023-04-09T09:10:09;102420.47;;;10.62;100.00
16120;BME280;12670;53.502;10.252;2023-04-09T09:13:17;102424.72;;;10.06;100.00
16120;BME280;12670;53.502;10.252;2023-04-09T09:16:20;102425.22;;;10.38;100.00
16120;BME280;12670;53.502;10.252;2023-04-09T09:19:28;102414.34;;;10.57;100.00
16120;BME280;12670;53.502;10.252;2023-04-09T09:22:47;102412.38;;;10.70;100.00
16120;BME280;12670;53.502;10.252;2023-04-09T09:25:57;102421.09;;;10.76;100.00
16120;BME280;12670;53.502;10.252;2023-04-09T09:29:02;102419.41;;;10.74;100.00
16120;BME280;12670;53.502;10.252;2023-04-09T09:32:12;102422.88;;;10.76;100.00
16120;BME280;12670;53.502;10.252;2023-04-09T09:35:14;102426.38;;;10.78;100.00
16120;BME280;12670;53.502;10.252;2023-04-09T09:38:17;102424.06;;;10.55;100.00
16120;BME280;12670;53.502;10.252;2023-04-09T09:41:22;102415.06;;;10.68;100.00
16120;BME280;12670;53.502;10.252;2023-04-09T09:44:34;102421.94;;;10.78;100.00
16120;BME280;12670;53.502;10.252;2023-04-09T09:47:36;102416.44;;;10.90;100.00
16120;BME280;12670;53.502;10.252;2023-04-09T09:50:41;102413.59;;;11.03;99.93
16120;BME280;12670;53.502;10.252;2023-04-09T09:53:44;102409.38;;;10.89;99.63
16120;BME280;12670;53.502;10.252;2023-04-09T09:56:51;102415.47;;;10.98;99.77
16120;BME280;12670;53.502;10.252;2023-04-09T10:00:00;102409.56;;;10.80;98.37
16120;BME280;12670;53.502;10.252;2023-04-09T10:03:11;102403.16;;;10.90;99.75
16120;BME280;12670;53.502;10.252;2023-04-09T10:06:14;102406.44;;;11.06;98.43
16120;BME280;12670;53.502;10.252;2023-04-09T10:09:18;102409.06;;;11.08;98.04
16120;BME280;12670;53.502;10.252;2023-04-09T10:12:24;102414.59;;;10.95;97.84
16120;BME280;12670;53.502;10.252;2023-04-09T10:15:28;102413.50;;;11.07;99.19
16120;BME280;12670;53.502;10.252;2023-04-09T10:18:31;102410.13;;;10.99;98.28
16120;BME280;12670;53.502;10.252;2023-04-09T10:21:39;102410.84;;;11.09;98.35
16120;BME280;12670;53.502;10.252;2023-04-09T10:24:44;102406.41;;;11.09;97.68
16120;BME280;12670;53.502;10.252;2023-04-09T10:27:58;102412.47;;;11.16;95.69
16120;BME280;12670;53.502;10.252;2023-04-09T10:31:03;102412.06;;;11.37;94.74
16120;BME280;12670;53.502;10.252;2023-04-09T10:34:06;102405.94;;;11.35;94.42
16120;BME280;12670;53.502;10.252;2023-04-09T10:37:14;102397.84;;;11.41;95.34
16120;BME280;12670;53.502;10.252;2023-04-09T10:40:17;102403.41;;;11.28;97.09
16120;BME280;12670;53.502;10.252;2023-04-09T10:43:22;102394.94;;;11.06;97.21
16120;BME280;12670;53.502;10.252;2023-04-09T10:46:26;102401.41;;;11.40;94.87
16120;BME280;12670;53.502;10.252;2023-04-09T10:49:35;102399.63;;;11.87;92.57
16120;BME280;12670;53.502;10.252;2023-04-09T10:52:39;102394.22;;;11.92;90.25
16120;BME280;12670;53.502;10.252;2023-04-09T10:55:47;102387.81;;;12.02;90.91
16120;BME280;12670;53.502;10.252;2023-04-09T10:58:52;102389.09;;;12.60;89.08
16120;BME280;12670;53.502;10.252;2023-04-09T11:01:54;102388.59;;;12.81;86.15
16120;BME280;12670;53.502;10.252;2023-04-09T11:05:04;102383.34;;;12.41;85.73
16120;BME280;12670;53.502;10.252;2023-04-09T11:08:09;102389.53;;;12.43;86.05
16120;BME280;12670;53.502;10.252;2023-04-09T11:11:12;102379.13;;;12.31;84.55
16120;BME280;12670;53.502;10.252;2023-04-09T11:14:19;102375.34;;;13.14;86.16
16120;BME280;12670;53.502;10.252;2023-04-09T11:17:22;102377.94;;;13.50;82.14
16120;BME280;12670;53.502;10.252;2023-04-09T11:20:25;102381.72;;;13.43;80.74
16120;BME280;12670;53.502;10.252;2023-04-09T11:23:28;102387.41;;;13.62;81.64
16120;BME280;12670;53.502;10.252;2023-04-09T11:26:34;102383.47;;;14.04;80.94
16120;BME280;12670;53.502;10.252;2023-04-09T11:29:38;102376.84;;;14.74;79.54
16120;BME280;12670;53.502;10.252;2023-04-09T11:32:43;102374.66;;;14.60;73.89
16120;BME280;12670;53.502;10.252;2023-04-09T11:35:46;102373.84;;;14.28;74.32
16120;BME280;12670;53.502;10.252;2023-04-09T11:38:49;102372.28;;;14.77;75.08
16120;BME280;12670;53.502;10.252;2023-04-09T11:41:52;102366.84;;;14.80;73.57
16120;BME280;12670;53.502;10.252;2023-04-09T11:44:56;102361.16;;;15.89;72.92
16120;BME280;12670;53.502;10.252;2023-04-09T11:48:01;102358.47;;;16.13;67.80
16120;BME280;12670;53.502;10.252;2023-04-09T11:51:04;102354.16;;;17.17;66.26
16120;BME280;12670;53.502;10.252;2023-04-09T11:54:07;102359.34;;;17.42;59.38
16120;BME280;12670;53.502;10.252;2023-04-09T11:57:09;102353.97;;;18.00;59.30
16120;BME280;12670;53.502;10.252;2023-04-09T12:00:15;102345.84;;;18.56;57.15
16120;BME280;12670;53.502;10.252;2023-04-09T12:03:26;102347.50;;;18.95;54.19
16120;BME280;12670;53.502;10.252;2023-04-09T12:06:29;102339.97;;;19.36;53.82
16120;BME280;12670;53.502;10.252;2023-04-09T12:09:32;102350.56;;;19.22;52.56
16120;BME280;12670;53.502;10.252;2023-04-09T12:12:42;102342.97;;;19.30;50.78
16120;BME280;12670;53.502;10.252;2023-04-09T12:15:47;102341.56;;;19.23;49.01
16120;BME280;12670;53.502;10.252;2023-04-09T12:18:50;102333.06;;;19.48;49.98
16120;BME280;12670;53.502;10.252;2023-04-09T12:21:56;102331.94;;;19.85;51.11
16120;BME280;12670;53.502;10.252;2023-04-09T12:24:59;102327.50;;;20.16;49.31
16120;BME280;12670;53.502;10.252;2023-04-09T12:28:02;102334.34;;;19.57;50.45
16120;BME280;12670;53.502;10.252;2023-04-09T12:31:09;102327.16;;;20.06;50.21
16120;BME280;12670;53.502;10.252;2023-04-09T12:34:12;102325.94;;;19.96;50.26
16120;BME280;12670;53.502;10.252;2023-04-09T12:37:15;102324.44;;;19.41;49.06
16120;BME280;12670;53.502;10.252;2023-04-09T12:40:18;102327.06;;;20.08;48.22
16120;BME280;12670;53.502;10.252;2023-04-09T12:43:21;102320.53;;;20.28;47.13
16120;BME280;12670;53.502;10.252;2023-04-09T12:46:25;102318.97;;;20.39;47.51
16120;BME280;12670;53.502;10.252;2023-04-09T12:49:28;102317.16;;;19.92;47.10
16120;BME280;12670;53.502;10.252;2023-04-09T12:52:31;102318.84;;;20.72;47.15
16120;BME280;12670;53.502;10.252;2023-04-09T12:55:34;102315.25;;;19.94;46.32
16120;BME280;12670;53.502;10.252;2023-04-09T12:58:37;102310.78;;;20.57;45.39
16120;BME280;12670;53.502;10.252;2023-04-09T13:01:41;102306.47;;;20.54;45.20
16120;BME280;12670;53.502;10.252;2023-04-09T13:04:44;102305.69;;;20.82;44.81
16120;BME280;12670;53.502;10.252;2023-04-09T13:07:46;102297.38;;;20.71;45.08
16120;BME280;12670;53.502;10.252;2023-04-09T13:10:49;102297.16;;;20.74;44.24
16120;BME280;12670;53.502;10.252;2023-04-09T13:13:52;102285.69;;;21.15;43.53
16120;BME280;12670;53.502;10.252;2023-04-09T13:16:56;102289.97;;;21.33;43.03
16120;BME280;12670;53.502;10.252;2023-04-09T13:19:59;102284.06;;;21.12;42.91
16120;BME280;12670;53.502;10.252;2023-04-09T13:23:02;102287.19;;;20.90;44.06
16120;BME280;12670;53.502;10.252;2023-04-09T13:26:04;102277.91;;;20.34;44.80
16120;BME280;12670;53.502;10.252;2023-04-09T13:29:07;102284.34;;;21.08;44.79
16120;BME280;12670;53.502;10.252;2023-04-09T13:32:11;102281.63;;;21.08;43.28
16120;BME280;12670;53.502;10.252;2023-04-09T13:35:14;102276.88;;;20.83;45.12
16120;BME280;12670;53.502;10.252;2023-04-09T13:38:17;102279.31;;;21.01;44.21
16120;BME280;12670;53.502;10.252;2023-04-09T13:41:20;102267.75;;;21.14;43.23
16120;BME280;12670;53.502;10.252;2023-04-09T13:44:28;102265.66;;;21.19;44.23
16120;BME280;12670;53.502;10.252;2023-04-09T13:47:32;102261.88;;;21.21;42.42
16120;BME280;12670;53.502;10.252;2023-04-09T13:50:34;102261.97;;;21.20;41.91
16120;BME280;12670;53.502;10.252;2023-04-09T13:53:37;102267.59;;;20.11;43.32
16120;BME280;12670;53.502;10.252;2023-04-09T13:56:40;102254.84;;;19.98;44.25
16120;BME280;12670;53.502;10.252;2023-04-09T13:59:42;102251.16;;;20.31;44.00
16120;BME280;12670;53.502;10.252;2023-04-09T14:02:46;102252.94;;;19.69;44.83
16120;BME280;12670;53.502;10.252;2023-04-09T14:05:49;102259.53;;;20.11;44.39
16120;BME280;12670;53.502;10.252;2023-04-09T14:08:52;102248.53;;;19.84;43.81
16120;BME280;12670;53.502;10.252;2023-04-09T14:11:55;102250.38;;;19.17;44.96
16120;BME280;12670;53.502;10.252;2023-04-09T14:14:57;102241.50;;;19.32;45.07
16120;BME280;12670;53.502;10.252;2023-04-09T14:18:01;102243.31;;;18.81;46.29
16120;BME280;12670;53.502;10.252;2023-04-09T14:21:05;102241.97;;;18.55;45.69
16120;BME280;12670;53.502;10.252;2023-04-09T14:24:10;102245.25;;;18.79;46.29
16120;BME280;12670;53.502;10.252;2023-04-09T14:27:13;102226.06;;;18.33;46.50
16120;BME280;12670;53.502;10.252;2023-04-09T14:30:16;102238.72;;;18.31;47.55
16120;BME280;12670;53.502;10.252;2023-04-09T14:33:20;102235.66;;;18.03;48.12
16120;BME280;12670;53.502;10.252;2023-04-09T14:36:23;102227.72;;;18.19;46.35
16120;BME280;12670;53.502;10.252;2023-04-09T14:39:27;102231.38;;;17.99;48.67
16120;BME280;12670;53.502;10.252;2023-04-09T14:42:30;102225.56;;;18.08;48.82
16120;BME280;12670;53.502;10.252;2023-04-09T14:45:32;102231.25;;;17.45;49.38
16120;BME280;12670;53.502;10.252;2023-04-09T14:48:36;102228.56;;;17.64;48.81
16120;BME280;12670;53.502;10.252;2023-04-09T14:51:40;102229.50;;;17.44;48.72
16120;BME280;12670;53.502;10.252;2023-04-09T14:54:43;102223.69;;;17.35;49.91
16120;BME280;12670;53.502;10.252;2023-04-09T14:57:46;102212.06;;;16.96;50.28
16120;BME280;12670;53.502;10.252;2023-04-09T15:00:49;102212.53;;;16.86;52.72
16120;BME280;12670;53.502;10.252;2023-04-09T15:03:53;102209.41;;;17.15;50.80
16120;BME280;12670;53.502;10.252;2023-04-09T15:06:56;102206.72;;;17.15;51.14
16120;BME280;12670;53.502;10.252;2023-04-09T15:09:59;102203.91;;;17.18;51.10
16120;BME280;12670;53.502;10.252;2023-04-09T15:13:02;102205.03;;;16.73;52.31
16120;BME280;12670;53.502;10.252;2023-04-09T15:16:05;102198.47;;;16.60;51.69
16120;BME280;12670;53.502;10.252;2023-04-09T15:19:09;102206.53;;;16.59;52.78
16120;BME280;12670;53.502;10.252;2023-04-09T15:22:12;102193.91;;;16.62;53.12
16120;BME280;12670;53.502;10.252;2023-04-09T15:25:14;102194.63;;;16.86;53.83
16120;BME280;12670;53.502;10.252;2023-04-09T15:28:17;102184.47;;;16.74;53.48
16120;BME280;12670;53.502;10.252;2023-04-09T15:31:20;102195.56;;;16.65;53.15
16120;BME280;12670;53.502;10.252;2023-04-09T15:34:24;102187.22;;;15.88;55.17
16120;BME280;12670;53.502;10.252;2023-04-09T15:37:27;102191.84;;;15.62;56.80
16120;BME280;12670;53.502;10.252;2023-04-09T15:40:30;102192.09;;;15.78;55.24
16120;BME280;12670;53.502;10.252;2023-04-09T15:43:32;102184.88;;;16.02;55.30
16120;BME280;12670;53.502;10.252;2023-04-09T15:46:36;102190.94;;;15.62;56.05